createdAt,value
2023-03-23T15:59:08.507Z,13.20
2023-03-23T16:01:37.336Z,13.10
2023-03-23T16:04:09.210Z,13.00
2023-03-23T16:06:36.474Z,12.90
2023-03-23T16:09:03.958Z,12.80
2023-03-23T16:11:31.556Z,12.90
2023-03-23T16:13:58.283Z,12.80
2023-03-23T16:16:27.768Z,12.70
2023-03-23T16:18:54.523Z,12.70
2023-03-23T16:21:22.324Z,12.70
2023-03-23T16:23:48.988Z,12.70
2023-03-23T16:26:15.771Z,12.60
2023-03-23T16:28:42.889Z,12.60
2023-03-23T16:31:10.024Z,12.70
2023-03-23T16:33:37.001Z,12.60
2023-03-23T16:36:03.580Z,12.60
2023-03-23T16:38:30.194Z,12.60
2023-03-23T16:40:56.731Z,12.60
2023-03-23T16:43:23.284Z,12.60
2023-03-23T16:45:50.167Z,12.50
2023-03-23T16:48:17.060Z,12.50
2023-03-23T16:50:44.312Z,12.40
2023-03-23T16:53:11.198Z,12.30
2023-03-23T16:55:38.183Z,12.20
2023-03-23T16:58:16.482Z,12.20
2023-03-23T17:00:45.505Z,12.10
2023-03-23T17:03:13.312Z,12.10
2023-03-23T17:05:40.114Z,12.10
2023-03-23T17:08:07.124Z,12.00
2023-03-23T17:10:33.663Z,11.90
2023-03-23T17:13:00.240Z,11.80
2023-03-23T17:15:26.795Z,11.80
2023-03-23T17:17:54.762Z,11.80
2023-03-23T17:20:21.755Z,11.70
2023-03-23T17:22:48.303Z,11.70
2023-03-23T17:25:15.311Z,11.70
2023-03-23T17:27:42.697Z,11.70
2023-03-23T17:30:10.936Z,11.70
2023-03-23T17:32:37.933Z,11.80
2023-03-23T17:35:05.681Z,11.80
2023-03-23T17:37:33.690Z,11.80
2023-03-23T17:40:00.421Z,11.80
2023-03-23T17:42:27.204Z,11.80
2023-03-23T17:44:53.796Z,11.80
2023-03-23T17:47:20.521Z,11.80
2023-03-23T17:49:47.789Z,11.80
2023-03-23T17:52:14.529Z,11.70
2023-03-23T17:54:41.162Z,11.60
2023-03-23T17:57:07.800Z,11.60
2023-03-23T17:59:34.397Z,11.50
2023-03-23T18:02:00.992Z,11.50
2023-03-23T18:04:27.539Z,11.50
2023-03-23T18:06:55.485Z,11.60
2023-03-23T18:09:22.241Z,11.70
2023-03-23T18:11:48.844Z,11.80
2023-03-23T18:14:15.394Z,11.80
2023-03-23T18:16:41.976Z,11.80
2023-03-23T18:19:08.526Z,11.90
2023-03-23T18:21:35.179Z,11.90
2023-03-23T18:24:01.824Z,11.90
2023-03-23T18:26:28.844Z,12.00
2023-03-23T18:28:55.761Z,12.00
2023-03-23T18:31:22.662Z,12.00
2023-03-23T18:33:50.141Z,12.10
2023-03-23T18:36:18.189Z,12.20
2023-03-23T18:38:46.286Z,12.10
2023-03-23T18:44:04.376Z,12.10
2023-03-23T18:46:32.164Z,11.90
2023-03-23T18:48:58.791Z,11.90
2023-03-23T18:51:26.249Z,11.90
2023-03-23T18:53:52.882Z,11.80
2023-03-23T18:56:19.467Z,11.80
2023-03-23T18:58:46.106Z,11.80
2023-03-23T19:01:14.135Z,11.80
2023-03-23T19:03:41.161Z,11.80
2023-03-23T19:06:34.982Z,11.80
2023-03-23T19:09:01.861Z,11.80
2023-03-23T19:11:28.501Z,11.80
2023-03-23T19:14:02.388Z,11.80
2023-03-23T19:16:31.081Z,11.70
2023-03-23T19:18:57.714Z,11.60
2023-03-23T19:21:25.477Z,11.60
2023-03-23T19:23:53.280Z,11.50
2023-03-23T19:26:23.000Z,11.50
2023-03-23T19:31:22.336Z,11.50
2023-03-23T19:33:48.908Z,11.40
2023-03-23T19:36:16.697Z,11.40
2023-03-23T19:38:43.463Z,11.30
2023-03-23T19:41:10.089Z,11.40
2023-03-23T19:43:37.788Z,11.40
2023-03-23T19:46:04.597Z,11.40
2023-03-23T19:48:31.383Z,11.50
2023-03-23T19:50:58.552Z,11.50
2023-03-23T19:53:26.637Z,11.50
2023-03-23T19:55:53.424Z,11.50
2023-03-23T19:58:20.519Z,11.50
2023-03-23T20:00:48.571Z,11.50
2023-03-23T20:03:16.008Z,11.50
2023-03-23T20:05:43.043Z,11.50
2023-03-23T20:08:10.132Z,11.40
2023-03-23T20:10:36.814Z,11.30
2023-03-23T20:13:03.981Z,11.30
2023-03-23T20:15:31.445Z,11.50
2023-03-23T20:17:58.372Z,11.50
2023-03-23T20:20:25.298Z,11.40
2023-03-23T20:22:53.944Z,11.30
2023-03-23T20:25:22.520Z,11.20
2023-03-23T20:27:49.048Z,11.10
2023-03-23T20:30:16.978Z,11.10
2023-03-23T20:32:46.319Z,11.10
2023-03-23T20:35:14.594Z,11.20
2023-03-23T20:37:41.262Z,11.30
2023-03-23T20:40:09.396Z,11.30
2023-03-23T20:42:36.033Z,11.20
2023-03-23T20:45:02.623Z,11.20
2023-03-23T20:47:29.229Z,11.10
2023-03-23T20:49:55.943Z,11.10
2023-03-23T20:52:23.453Z,11.10
2023-03-23T20:54:51.066Z,11.10
2023-03-23T20:57:17.866Z,11.10
2023-03-23T20:59:44.374Z,11.10
2023-03-23T21:02:15.334Z,11.00
2023-03-23T21:04:42.430Z,11.00
2023-03-23T21:07:09.161Z,10.90
2023-03-23T21:09:36.087Z,10.90
2023-03-23T21:12:06.325Z,10.90
2023-03-23T21:14:33.479Z,10.90
2023-03-23T21:17:01.501Z,10.90
2023-03-23T21:19:29.475Z,11.00
2023-03-23T21:21:57.332Z,11.00
2023-03-23T21:24:26.528Z,10.90
2023-03-23T21:26:53.691Z,10.90
2023-03-23T21:29:23.943Z,10.90
2023-03-23T21:31:57.838Z,10.90
2023-03-23T21:34:32.250Z,10.90
2023-03-23T21:36:58.796Z,10.80
2023-03-23T21:39:26.296Z,10.80
2023-03-23T21:41:53.029Z,10.80
2023-03-23T21:44:19.780Z,10.80
2023-03-23T21:46:46.333Z,10.70
2023-03-23T21:49:15.904Z,10.70
2023-03-23T21:51:43.383Z,10.80
2023-03-23T21:54:10.521Z,10.80
2023-03-23T21:56:37.677Z,10.70
2023-03-23T21:59:05.950Z,10.70
2023-03-23T22:01:33.217Z,10.70
2023-03-23T22:03:59.768Z,10.70
2023-03-23T22:06:28.538Z,10.70
2023-03-23T22:08:55.967Z,10.70
2023-03-23T22:11:23.861Z,10.60
2023-03-23T22:13:50.887Z,10.60
2023-03-23T22:16:18.137Z,10.60
2023-03-23T22:18:46.474Z,10.60
2023-03-23T22:21:13.839Z,10.60
2023-03-23T22:23:40.698Z,10.60
2023-03-23T22:26:07.523Z,10.50
2023-03-23T22:28:37.135Z,10.60
2023-03-23T22:31:05.690Z,10.60
2023-03-23T22:33:32.635Z,10.50
2023-03-23T22:36:00.144Z,10.50
2023-03-23T22:38:26.725Z,10.50
2023-03-23T22:40:56.632Z,10.50
2023-03-23T22:43:24.117Z,10.40
2023-03-23T22:45:51.543Z,10.40
2023-03-23T22:48:19.054Z,10.40
2023-03-23T22:50:47.188Z,10.40
2023-03-23T22:53:14.838Z,10.30
2023-03-23T22:55:42.664Z,10.30
2023-03-23T22:58:09.975Z,10.30
2023-03-23T23:03:29.788Z,10.20
2023-03-23T23:05:57.766Z,10.20
2023-03-23T23:08:24.902Z,10.20
2023-03-23T23:10:52.573Z,10.10
2023-03-23T23:13:19.791Z,10.10
2023-03-23T23:15:53.455Z,10.10
2023-03-23T23:18:21.052Z,10.10
2023-03-23T23:20:48.695Z,10.00
2023-03-23T23:23:15.421Z,10.00
2023-03-23T23:25:42.303Z,10.00
2023-03-23T23:28:08.828Z,9.90
2023-03-23T23:30:35.473Z,9.90
2023-03-23T23:33:02.710Z,9.90
2023-03-23T23:35:29.354Z,10.00
2023-03-23T23:37:55.900Z,10.00
2023-03-23T23:40:22.413Z,9.90
2023-03-23T23:42:50.245Z,9.90
2023-03-23T23:45:17.116Z,9.90
2023-03-23T23:47:43.826Z,9.90
2023-03-23T23:50:11.831Z,9.90
2023-03-23T23:52:39.081Z,9.90
2023-03-23T23:55:06.652Z,9.90
2023-03-23T23:57:33.655Z,9.80
